sensor_id;sensor_type;location;lat;lon;timestamp;temperature;humidity
11965;DHT22;6042;41.326;19.826;2022-11-20T00:01:30;17.00;99.90
11965;DHT22;6042;41.326;19.826;2022-11-20T00:03:59;17.10;99.90
11965;DHT22;6042;41.326;19.826;2022-11-20T00:06:29;17.10;99.90
11965;DHT22;6042;41.326;19.826;2022-11-20T00:08:59;17.10;99.90
11965;DHT22;6042;41.326;19.826;2022-11-20T00:11:30;17.10;99.90
11965;DHT22;6042;41.326;19.826;2022-11-20T00:14:01;17.10;99.90
11965;DHT22;6042;41.326;19.826;2022-11-20T00:16:32;17.10;99.90
11965;DHT22;6042;41.326;19.826;2022-11-20T00:19:01;17.10;99.90
11965;DHT22;6042;41.326;19.826;2022-11-20T00:21:30;17.10;99.90
11965;DHT22;6042;41.326;19.826;2022-11-20T00:23:58;17.10;99.90
11965;DHT22;6042;41.326;19.826;2022-11-20T00:26:28;17.20;99.90
11965;DHT22;6042;41.326;19.826;2022-11-20T00:28:59;17.20;99.90
11965;DHT22;6042;41.326;19.826;2022-11-20T00:31:29;17.20;99.90
11965;DHT22;6042;41.326;19.826;2022-11-20T00:34:00;17.20;99.90
11965;DHT22;6042;41.326;19.826;2022-11-20T00:36:31;17.30;99.90
11965;DHT22;6042;41.326;19.826;2022-11-20T00:39:00;17.30;99.90
11965;DHT22;6042;41.326;19.826;2022-11-20T00:41:29;17.30;99.90
11965;DHT22;6042;41.326;19.826;2022-11-20T00:44:02;17.30;99.90
11965;DHT22;6042;41.326;19.826;2022-11-20T00:46:30;17.40;99.90
11965;DHT22;6042;41.326;19.826;2022-11-20T00:48:59;17.40;99.90
11965;DHT22;6042;41.326;19.826;2022-11-20T00:51:28;17.40;99.90
11965;DHT22;6042;41.326;19.826;2022-11-20T00:53:57;17.50;99.90
11965;DHT22;6042;41.326;19.826;2022-11-20T00:56:27;17.50;99.90
11965;DHT22;6042;41.326;19.826;2022-11-20T00:58:58;17.60;99.90
11965;DHT22;6042;41.326;19.826;2022-11-20T01:01:29;17.70;99.90
11965;DHT22;6042;41.326;19.826;2022-11-20T01:03:59;17.80;99.90
11965;DHT22;6042;41.326;19.826;2022-11-20T01:06:29;17.80;99.90
11965;DHT22;6042;41.326;19.826;2022-11-20T01:08:59;17.80;99.90
11965;DHT22;6042;41.326;19.826;2022-11-20T01:11:29;17.80;99.90
11965;DHT22;6042;41.326;19.826;2022-11-20T01:13:59;17.80;99.90
11965;DHT22;6042;41.326;19.826;2022-11-20T01:16:35;17.90;99.90
11965;DHT22;6042;41.326;19.826;2022-11-20T01:19:06;17.80;99.90
11965;DHT22;6042;41.326;19.826;2022-11-20T01:21:36;17.90;99.90
11965;DHT22;6042;41.326;19.826;2022-11-20T01:24:07;17.90;99.90
11965;DHT22;6042;41.326;19.826;2022-11-20T01:26:38;17.90;99.90
11965;DHT22;6042;41.326;19.826;2022-11-20T01:29:10;18.00;99.90
11965;DHT22;6042;41.326;19.826;2022-11-20T01:31:42;18.00;99.90
11965;DHT22;6042;41.326;19.826;2022-11-20T01:34:12;18.00;99.90
11965;DHT22;6042;41.326;19.826;2022-11-20T01:36:42;18.00;99.90
11965;DHT22;6042;41.326;19.826;2022-11-20T01:39:12;18.10;99.90
11965;DHT22;6042;41.326;19.826;2022-11-20T01:41:41;18.10;99.90
11965;DHT22;6042;41.326;19.826;2022-11-20T01:44:47;18.10;99.90
11965;DHT22;6042;41.326;19.826;2022-11-20T01:47:21;18.20;99.90
11965;DHT22;6042;41.326;19.826;2022-11-20T01:49:56;18.20;99.90
11965;DHT22;6042;41.326;19.826;2022-11-20T01:52:32;18.20;99.90
11965;DHT22;6042;41.326;19.826;2022-11-20T01:55:07;18.40;99.90
11965;DHT22;6042;41.326;19.826;2022-11-20T01:57:38;18.40;99.90
11965;DHT22;6042;41.326;19.826;2022-11-20T02:00:09;18.40;99.90
11965;DHT22;6042;41.326;19.826;2022-11-20T02:02:43;18.50;99.90
11965;DHT22;6042;41.326;19.826;2022-11-20T02:05:20;18.50;99.90
11965;DHT22;6042;41.326;19.826;2022-11-20T02:07:50;18.50;99.90
11965;DHT22;6042;41.326;19.826;2022-11-20T02:10:20;18.50;99.90
11965;DHT22;6042;41.326;19.826;2022-11-20T02:12:49;18.50;99.90
11965;DHT22;6042;41.326;19.826;2022-11-20T02:15:35;18.50;99.90
11965;DHT22;6042;41.326;19.826;2022-11-20T02:18:09;18.50;99.90
11965;DHT22;6042;41.326;19.826;2022-11-20T02:20:38;18.50;99.90
11965;DHT22;6042;41.326;19.826;2022-11-20T02:23:12;18.60;99.90
11965;DHT22;6042;41.326;19.826;2022-11-20T02:25:47;18.60;99.90
11965;DHT22;6042;41.326;19.826;2022-11-20T02:28:17;18.60;99.90
11965;DHT22;6042;41.326;19.826;2022-11-20T02:30:46;18.70;99.90
11965;DHT22;6042;41.326;19.826;2022-11-20T02:33:14;18.70;99.90
11965;DHT22;6042;41.326;19.826;2022-11-20T02:35:45;18.60;99.90
11965;DHT22;6042;41.326;19.826;2022-11-20T02:38:14;18.60;99.90
11965;DHT22;6042;41.326;19.826;2022-11-20T02:40:43;18.60;99.90
11965;DHT22;6042;41.326;19.826;2022-11-20T02:43:13;18.70;99.90
11965;DHT22;6042;41.326;19.826;2022-11-20T02:45:43;18.60;99.90
11965;DHT22;6042;41.326;19.826;2022-11-20T02:48:12;18.70;99.90
11965;DHT22;6042;41.326;19.826;2022-11-20T02:50:40;18.70;99.90
11965;DHT22;6042;41.326;19.826;2022-11-20T02:53:09;18.60;99.90
11965;DHT22;6042;41.326;19.826;2022-11-20T02:55:38;18.60;99.90
11965;DHT22;6042;41.326;19.826;2022-11-20T02:58:09;18.60;99.90
11965;DHT22;6042;41.326;19.826;2022-11-20T03:00:39;18.60;99.90
11965;DHT22;6042;41.326;19.826;2022-11-20T03:03:07;18.40;99.90
11965;DHT22;6042;41.326;19.826;2022-11-20T03:05:36;18.30;99.90
11965;DHT22;6042;41.326;19.826;2022-11-20T03:08:04;18.20;99.90
11965;DHT22;6042;41.326;19.826;2022-11-20T03:10:33;18.10;99.90
11965;DHT22;6042;41.326;19.826;2022-11-20T03:13:01;17.90;99.90
11965;DHT22;6042;41.326;19.826;2022-11-20T03:15:30;17.70;99.90
11965;DHT22;6042;41.326;19.826;2022-11-20T03:18:00;17.50;99.90
11965;DHT22;6042;41.326;19.826;2022-11-20T03:20:29;17.20;99.90
11965;DHT22;6042;41.326;19.826;2022-11-20T03:22:57;17.20;99.90
11965;DHT22;6042;41.326;19.826;2022-11-20T03:25:26;17.20;99.90
11965;DHT22;6042;41.326;19.826;2022-11-20T03:27:56;17.20;99.90
11965;DHT22;6042;41.326;19.826;2022-11-20T03:30:24;16.90;99.90
11965;DHT22;6042;41.326;19.826;2022-11-20T03:32:57;16.60;99.90
11965;DHT22;6042;41.326;19.826;2022-11-20T03:35:26;16.50;99.90
11965;DHT22;6042;41.326;19.826;2022-11-20T03:37:55;16.40;99.90
11965;DHT22;6042;41.326;19.826;2022-11-20T03:40:23;16.30;99.90
11965;DHT22;6042;41.326;19.826;2022-11-20T03:42:52;16.20;99.90
11965;DHT22;6042;41.326;19.826;2022-11-20T03:45:20;16.20;99.90
11965;DHT22;6042;41.326;19.826;2022-11-20T03:47:49;16.20;99.90
11965;DHT22;6042;41.326;19.826;2022-11-20T03:50:18;16.10;99.90
11965;DHT22;6042;41.326;19.826;2022-11-20T03:52:48;16.10;99.90
11965;DHT22;6042;41.326;19.826;2022-11-20T03:55:19;16.00;99.90
11965;DHT22;6042;41.326;19.826;2022-11-20T03:57:48;15.90;99.90
11965;DHT22;6042;41.326;19.826;2022-11-20T04:00:17;15.90;99.90
11965;DHT22;6042;41.326;19.826;2022-11-20T04:02:45;16.00;99.90
11965;DHT22;6042;41.326;19.826;2022-11-20T04:05:14;16.10;99.90
11965;DHT22;6042;41.326;19.826;2022-11-20T04:07:42;16.20;99.90
11965;DHT22;6042;41.326;19.826;2022-11-20T04:10:12;16.20;99.90
11965;DHT22;6042;41.326;19.826;2022-11-20T04:12:41;16.20;99.90
11965;DHT22;6042;41.326;19.826;2022-11-20T04:15:09;16.20;99.90
11965;DHT22;6042;41.326;19.826;2022-11-20T04:17:38;16.30;99.90
11965;DHT22;6042;41.326;19.826;2022-11-20T04:20:07;16.40;99.90
11965;DHT22;6042;41.326;19.826;2022-11-20T04:22:36;16.30;99.90
11965;DHT22;6042;41.326;19.826;2022-11-20T04:25:05;16.20;99.90
11965;DHT22;6042;41.326;19.826;2022-11-20T04:27:35;16.20;99.90
11965;DHT22;6042;41.326;19.826;2022-11-20T04:30:04;16.20;99.90
11965;DHT22;6042;41.326;19.826;2022-11-20T04:32:32;16.20;99.90
11965;DHT22;6042;41.326;19.826;2022-11-20T04:35:01;16.20;99.90
11965;DHT22;6042;41.326;19.826;2022-11-20T04:37:29;16.30;99.90
11965;DHT22;6042;41.326;19.826;2022-11-20T04:39:58;16.30;99.90
11965;DHT22;6042;41.326;19.826;2022-11-20T04:42:26;16.30;99.90
11965;DHT22;6042;41.326;19.826;2022-11-20T04:44:59;16.30;99.90
11965;DHT22;6042;41.326;19.826;2022-11-20T04:47:27;16.30;99.90
11965;DHT22;6042;41.326;19.826;2022-11-20T04:49:55;16.30;99.90
11965;DHT22;6042;41.326;19.826;2022-11-20T04:52:24;16.30;99.90
11965;DHT22;6042;41.326;19.826;2022-11-20T04:54:52;16.20;99.90
11965;DHT22;6042;41.326;19.826;2022-11-20T04:57:21;16.20;99.90
11965;DHT22;6042;41.326;19.826;2022-11-20T04:59:49;16.20;99.90
11965;DHT22;6042;41.326;19.826;2022-11-20T05:02:20;16.30;99.90
11965;DHT22;6042;41.326;19.826;2022-11-20T05:04:48;16.30;99.90
11965;DHT22;6042;41.326;19.826;2022-11-20T05:07:17;16.30;99.90
11965;DHT22;6042;41.326;19.826;2022-11-20T05:09:45;16.30;99.90
11965;DHT22;6042;41.326;19.826;2022-11-20T05:12:14;16.30;99.90
11965;DHT22;6042;41.326;19.826;2022-11-20T05:14:42;16.30;99.90
11965;DHT22;6042;41.326;19.826;2022-11-20T05:17:11;16.40;99.90
11965;DHT22;6042;41.326;19.826;2022-11-20T05:19:41;16.40;99.90
11965;DHT22;6042;41.326;19.826;2022-11-20T05:22:09;16.40;99.90
11965;DHT22;6042;41.326;19.826;2022-11-20T05:24:38;16.50;99.90
11965;DHT22;6042;41.326;19.826;2022-11-20T05:27:06;16.50;99.90
11965;DHT22;6042;41.326;19.826;2022-11-20T05:29:35;16.60;99.90
11965;DHT22;6042;41.326;19.826;2022-11-20T05:32:04;16.60;99.90
11965;DHT22;6042;41.326;19.826;2022-11-20T05:34:36;16.60;99.90
11965;DHT22;6042;41.326;19.826;2022-11-20T05:37:06;16.60;99.90
11965;DHT22;6042;41.326;19.826;2022-11-20T05:39:35;16.70;99.90
11965;DHT22;6042;41.326;19.826;2022-11-20T05:42:03;16.70;99.90
11965;DHT22;6042;41.326;19.826;2022-11-20T05:44:49;16.70;99.90
11965;DHT22;6042;41.326;19.826;2022-11-20T05:47:18;16.80;99.90
11965;DHT22;6042;41.326;19.826;2022-11-20T05:49:46;16.90;99.90
11965;DHT22;6042;41.326;19.826;2022-11-20T05:52:16;16.80;99.90
11965;DHT22;6042;41.326;19.826;2022-11-20T05:54:45;16.80;99.90
11965;DHT22;6042;41.326;19.826;2022-11-20T05:57:14;16.90;99.90
11965;DHT22;6042;41.326;19.826;2022-11-20T05:59:42;16.90;99.90
11965;DHT22;6042;41.326;19.826;2022-11-20T06:02:11;16.80;99.90
11965;DHT22;6042;41.326;19.826;2022-11-20T06:04:40;16.80;99.90
11965;DHT22;6042;41.326;19.826;2022-11-20T06:07:09;16.80;99.90
11965;DHT22;6042;41.326;19.826;2022-11-20T06:09:38;16.80;99.90
11965;DHT22;6042;41.326;19.826;2022-11-20T06:12:07;16.80;99.90
11965;DHT22;6042;41.326;19.826;2022-11-20T06:14:35;16.80;99.90
11965;DHT22;6042;41.326;19.826;2022-11-20T06:17:04;16.80;99.90
11965;DHT22;6042;41.326;19.826;2022-11-20T06:19:32;16.80;99.90
11965;DHT22;6042;41.326;19.826;2022-11-20T06:22:01;16.80;99.90
11965;DHT22;6042;41.326;19.826;2022-11-20T06:24:29;16.80;99.90
11965;DHT22;6042;41.326;19.826;2022-11-20T06:26:59;16.90;99.90
11965;DHT22;6042;41.326;19.826;2022-11-20T06:29:28;16.80;99.90
11965;DHT22;6042;41.326;19.826;2022-11-20T06:32:01;16.60;99.90
11965;DHT22;6042;41.326;19.826;2022-11-20T06:34:29;16.30;99.90
11965;DHT22;6042;41.326;19.826;2022-11-20T06:36:58;16.10;99.90
11965;DHT22;6042;41.326;19.826;2022-11-20T06:39:26;15.70;99.90
11965;DHT22;6042;41.326;19.826;2022-11-20T06:41:54;14.60;99.90
11965;DHT22;6042;41.326;19.826;2022-11-20T06:44:26;14.00;99.90
11965;DHT22;6042;41.326;19.826;2022-11-20T06:46:55;13.80;99.90
11965;DHT22;6042;41.326;19.826;2022-11-20T06:49:24;13.50;99.90
11965;DHT22;6042;41.326;19.826;2022-11-20T06:51:52;13.50;99.90
11965;DHT22;6042;41.326;19.826;2022-11-20T06:54:20;13.50;99.90
11965;DHT22;6042;41.326;19.826;2022-11-20T06:56:50;13.70;99.90
11965;DHT22;6042;41.326;19.826;2022-11-20T06:59:18;13.70;99.90
11965;DHT22;6042;41.326;19.826;2022-11-20T07:01:48;13.60;99.90
11965;DHT22;6042;41.326;19.826;2022-11-20T07:04:17;13.30;99.90
11965;DHT22;6042;41.326;19.826;2022-11-20T07:06:45;13.20;99.90
11965;DHT22;6042;41.326;19.826;2022-11-20T07:09:14;13.20;99.90
11965;DHT22;6042;41.326;19.826;2022-11-20T07:11:43;13.10;99.90
11965;DHT22;6042;41.326;19.826;2022-11-20T07:14:11;13.00;99.90
11965;DHT22;6042;41.326;19.826;2022-11-20T07:16:40;13.10;99.90
11965;DHT22;6042;41.326;19.826;2022-11-20T07:19:09;13.10;99.90
11965;DHT22;6042;41.326;19.826;2022-11-20T07:21:39;13.30;99.90
11965;DHT22;6042;41.326;19.826;2022-11-20T07:24:07;13.30;99.90
11965;DHT22;6042;41.326;19.826;2022-11-20T07:26:36;13.30;99.90
11965;DHT22;6042;41.326;19.826;2022-11-20T07:29:04;13.40;99.90
11965;DHT22;6042;41.326;19.826;2022-11-20T07:31:33;13.40;99.90
11965;DHT22;6042;41.326;19.826;2022-11-20T07:34:01;13.40;99.90
11965;DHT22;6042;41.326;19.826;2022-11-20T07:36:31;13.50;99.90
11965;DHT22;6042;41.326;19.826;2022-11-20T07:39:00;13.50;99.90
11965;DHT22;6042;41.326;19.826;2022-11-20T07:41:28;13.60;99.90
11965;DHT22;6042;41.326;19.826;2022-11-20T07:43:57;13.80;99.90
11965;DHT22;6042;41.326;19.826;2022-11-20T07:46:25;13.90;99.90
11965;DHT22;6042;41.326;19.826;2022-11-20T07:48:53;13.90;99.90
11965;DHT22;6042;41.326;19.826;2022-11-20T07:51:22;13.90;99.90
11965;DHT22;6042;41.326;19.826;2022-11-20T07:53:52;13.90;99.90
11965;DHT22;6042;41.326;19.826;2022-11-20T07:56:21;14.00;99.90
11965;DHT22;6042;41.326;19.826;2022-11-20T07:58:49;14.10;99.90
11965;DHT22;6042;41.326;19.826;2022-11-20T08:01:18;14.10;99.90
11965;DHT22;6042;41.326;19.826;2022-11-20T08:03:47;14.10;99.90
11965;DHT22;6042;41.326;19.826;2022-11-20T08:06:16;14.20;99.90
11965;DHT22;6042;41.326;19.826;2022-11-20T08:08:45;14.30;99.90
11965;DHT22;6042;41.326;19.826;2022-11-20T08:11:16;14.20;99.90
11965;DHT22;6042;41.326;19.826;2022-11-20T08:14:03;14.10;99.90
11965;DHT22;6042;41.326;19.826;2022-11-20T08:16:41;13.80;99.90
11965;DHT22;6042;41.326;19.826;2022-11-20T08:19:10;13.80;99.90
11965;DHT22;6042;41.326;19.826;2022-11-20T08:21:39;13.80;99.90
11965;DHT22;6042;41.326;19.826;2022-11-20T08:24:08;13.70;99.90
11965;DHT22;6042;41.326;19.826;2022-11-20T08:26:39;13.60;99.90
11965;DHT22;6042;41.326;19.826;2022-11-20T08:29:08;13.70;99.90
11965;DHT22;6042;41.326;19.826;2022-11-20T08:31:36;13.70;99.90
11965;DHT22;6042;41.326;19.826;2022-11-20T08:34:05;13.60;99.90
11965;DHT22;6042;41.326;19.826;2022-11-20T08:36:36;13.60;99.90
11965;DHT22;6042;41.326;19.826;2022-11-20T08:39:04;13.50;99.90
11965;DHT22;6042;41.326;19.826;2022-11-20T08:41:33;13.30;99.90
11965;DHT22;6042;41.326;19.826;2022-11-20T08:44:06;13.30;99.90
11965;DHT22;6042;41.326;19.826;2022-11-20T08:46:37;13.20;99.90
11965;DHT22;6042;41.326;19.826;2022-11-20T08:49:09;13.40;99.90
11965;DHT22;6042;41.326;19.826;2022-11-20T08:51:38;13.40;99.90
11965;DHT22;6042;41.326;19.826;2022-11-20T08:54:07;13.50;99.90
11965;DHT22;6042;41.326;19.826;2022-11-20T08:56:36;13.50;99.90
11965;DHT22;6042;41.326;19.826;2022-11-20T08:59:06;13.60;99.90
11965;DHT22;6042;41.326;19.826;2022-11-20T09:01:54;13.70;99.90
11965;DHT22;6042;41.326;19.826;2022-11-20T09:04:23;13.70;99.90
11965;DHT22;6042;41.326;19.826;2022-11-20T09:06:52;13.80;99.90
11965;DHT22;6042;41.326;19.826;2022-11-20T09:09:20;13.80;99.90
11965;DHT22;6042;41.326;19.826;2022-11-20T09:11:49;13.80;99.90
11965;DHT22;6042;41.326;19.826;2022-11-20T09:14:19;13.80;99.90
11965;DHT22;6042;41.326;19.826;2022-11-20T09:16:48;13.70;99.90
11965;DHT22;6042;41.326;19.826;2022-11-20T09:19:16;13.80;99.90
11965;DHT22;6042;41.326;19.826;2022-11-20T09:22:02;13.70;99.90
11965;DHT22;6042;41.326;19.826;2022-11-20T09:24:31;13.70;99.90
11965;DHT22;6042;41.326;19.826;2022-11-20T09:27:02;13.80;99.90
11965;DHT22;6042;41.326;19.826;2022-11-20T09:29:32;13.90;99.90
11965;DHT22;6042;41.326;19.826;2022-11-20T09:32:01;13.80;99.90
11965;DHT22;6042;41.326;19.826;2022-11-20T09:34:30;13.70;99.90
11965;DHT22;6042;41.326;19.826;2022-11-20T09:36:59;13.70;99.90
11965;DHT22;6042;41.326;19.826;2022-11-20T09:39:33;13.70;99.90
11965;DHT22;6042;41.326;19.826;2022-11-20T09:42:36;13.60;99.90
11965;DHT22;6042;41.326;19.826;2022-11-20T09:45:22;13.80;99.90
11965;DHT22;6042;41.326;19.826;2022-11-20T09:48:02;13.80;99.90
11965;DHT22;6042;41.326;19.826;2022-11-20T09:50:37;13.80;99.90
11965;DHT22;6042;41.326;19.826;2022-11-20T09:53:16;13.80;99.90
11965;DHT22;6042;41.326;19.826;2022-11-20T09:55:49;13.70;99.90
11965;DHT22;6042;41.326;19.826;2022-11-20T09:58:25;13.80;99.90
11965;DHT22;6042;41.326;19.826;2022-11-20T10:01:08;13.80;99.90
11965;DHT22;6042;41.326;19.826;2022-11-20T10:03:44;13.70;99.90
11965;DHT22;6042;41.326;19.826;2022-11-20T10:06:16;13.60;99.90
11965;DHT22;6042;41.326;19.826;2022-11-20T10:08:51;13.60;99.90
11965;DHT22;6042;41.326;19.826;2022-11-20T10:11:33;13.70;99.90
11965;DHT22;6042;41.326;19.826;2022-11-20T10:14:11;13.70;99.90
11965;DHT22;6042;41.326;19.826;2022-11-20T10:16:56;13.60;99.90
11965;DHT22;6042;41.326;19.826;2022-11-20T10:19:37;13.60;99.90
11965;DHT22;6042;41.326;19.826;2022-11-20T10:22:18;13.60;99.90
11965;DHT22;6042;41.326;19.826;2022-11-20T10:24:55;13.70;99.90
11965;DHT22;6042;41.326;19.826;2022-11-20T10:27:56;13.70;99.90
11965;DHT22;6042;41.326;19.826;2022-11-20T10:30:36;13.70;99.90
11965;DHT22;6042;41.326;19.826;2022-11-20T10:33:15;13.70;99.90
11965;DHT22;6042;41.326;19.826;2022-11-20T10:35:49;13.70;99.90
11965;DHT22;6042;41.326;19.826;2022-11-20T10:38:23;13.70;99.90
11965;DHT22;6042;41.326;19.826;2022-11-20T10:40:56;13.50;99.90
11965;DHT22;6042;41.326;19.826;2022-11-20T10:43:48;13.40;99.90
11965;DHT22;6042;41.326;19.826;2022-11-20T10:46:20;13.40;99.90
11965;DHT22;6042;41.326;19.826;2022-11-20T10:48:51;13.30;99.90
11965;DHT22;6042;41.326;19.826;2022-11-20T10:51:37;13.20;99.90
11965;DHT22;6042;41.326;19.826;2022-11-20T10:54:13;13.30;99.90
11965;DHT22;6042;41.326;19.826;2022-11-20T10:56:50;13.40;99.90
11965;DHT22;6042;41.326;19.826;2022-11-20T10:59:35;13.50;99.90
11965;DHT22;6042;41.326;19.826;2022-11-20T11:02:18;13.40;99.90
11965;DHT22;6042;41.326;19.826;2022-11-20T11:04:50;13.50;99.90
11965;DHT22;6042;41.326;19.826;2022-11-20T11:07:22;13.50;99.90
11965;DHT22;6042;41.326;19.826;2022-11-20T11:09:53;13.60;99.90
11965;DHT22;6042;41.326;19.826;2022-11-20T11:12:24;13.60;99.90
11965;DHT22;6042;41.326;19.826;2022-11-20T11:14:56;13.60;99.90
11965;DHT22;6042;41.326;19.826;2022-11-20T11:17:30;13.60;99.90
11965;DHT22;6042;41.326;19.826;2022-11-20T11:20:11;13.70;99.90
11965;DHT22;6042;41.326;19.826;2022-11-20T11:22:45;13.70;99.90
11965;DHT22;6042;41.326;19.826;2022-11-20T11:25:26;13.80;99.90
11965;DHT22;6042;41.326;19.826;2022-11-20T11:27:58;13.70;99.90
11965;DHT22;6042;41.326;19.826;2022-11-20T11:30:30;13.60;99.90
11965;DHT22;6042;41.326;19.826;2022-11-20T11:33:10;13.60;99.90
11965;DHT22;6042;41.326;19.826;2022-11-20T11:35:46;13.60;99.90
11965;DHT22;6042;41.326;19.826;2022-11-20T11:38:22;13.40;99.90
11965;DHT22;6042;41.326;19.826;2022-11-20T11:40:54;13.40;99.90
11965;DHT22;6042;41.326;19.826;2022-11-20T11:43:26;13.40;99.90
11965;DHT22;6042;41.326;19.826;2022-11-20T11:46:25;13.30;99.90
11965;DHT22;6042;41.326;19.826;2022-11-20T11:48:59;13.30;99.90
11965;DHT22;6042;41.326;19.826;2022-11-20T11:51:45;13.20;99.90
11965;DHT22;6042;41.326;19.826;2022-11-20T11:54:21;13.30;99.90
11965;DHT22;6042;41.326;19.826;2022-11-20T11:56:53;13.40;99.90
11965;DHT22;6042;41.326;19.826;2022-11-20T11:59:27;13.40;99.90
11965;DHT22;6042;41.326;19.826;2022-11-20T12:02:01;13.30;99.90
11965;DHT22;6042;41.326;19.826;2022-11-20T12:04:42;13.20;99.90
11965;DHT22;6042;41.326;19.826;2022-11-20T12:07:19;13.20;99.90
11965;DHT22;6042;41.326;19.826;2022-11-20T12:10:20;13.30;99.90
11965;DHT22;6042;41.326;19.826;2022-11-20T12:13:01;13.30;99.90
11965;DHT22;6042;41.326;19.826;2022-11-20T12:15:34;13.30;99.90
11965;DHT22;6042;41.326;19.826;2022-11-20T12:18:08;13.40;99.90
11965;DHT22;6042;41.326;19.826;2022-11-20T12:20:43;13.30;99.90
11965;DHT22;6042;41.326;19.826;2022-11-20T12:23:21;13.20;99.90
11965;DHT22;6042;41.326;19.826;2022-11-20T12:25:56;13.20;99.90
11965;DHT22;6042;41.326;19.826;2022-11-20T12:28:48;13.40;99.90
11965;DHT22;6042;41.326;19.826;2022-11-20T12:31:33;13.40;99.90
11965;DHT22;6042;41.326;19.826;2022-11-20T12:34:28;13.40;99.90
11965;DHT22;6042;41.326;19.826;2022-11-20T12:37:04;13.30;99.90
11965;DHT22;6042;41.326;19.826;2022-11-20T12:39:43;13.30;99.90
11965;DHT22;6042;41.326;19.826;2022-11-20T12:42:50;13.30;99.90
11965;DHT22;6042;41.326;19.826;2022-11-20T12:51:50;13.20;99.90
11965;DHT22;6042;41.326;19.826;2022-11-20T12:57:43;13.20;99.90
11965;DHT22;6042;41.326;19.826;2022-11-20T13:00:17;13.20;99.90
11965;DHT22;6042;41.326;19.826;2022-11-20T13:05:55;13.10;99.90
11965;DHT22;6042;41.326;19.826;2022-11-20T13:08:31;13.10;99.90
11965;DHT22;6042;41.326;19.826;2022-11-20T13:11:09;13.10;99.90
11965;DHT22;6042;41.326;19.826;2022-11-20T13:13:59;13.10;99.90
11965;DHT22;6042;41.326;19.826;2022-11-20T13:16:36;13.20;99.90
11965;DHT22;6042;41.326;19.826;2022-11-20T13:19:12;13.20;99.90
11965;DHT22;6042;41.326;19.826;2022-11-20T13:21:43;13.20;99.90
11965;DHT22;6042;41.326;19.826;2022-11-20T13:24:23;13.30;99.90
11965;DHT22;6042;41.326;19.826;2022-11-20T13:27:04;13.30;99.90
11965;DHT22;6042;41.326;19.826;2022-11-20T13:29:36;13.30;99.90
11965;DHT22;6042;41.326;19.826;2022-11-20T13:32:12;13.30;99.90
11965;DHT22;6042;41.326;19.826;2022-11-20T13:34:51;13.30;99.90
11965;DHT22;6042;41.326;19.826;2022-11-20T13:37:26;13.20;99.90
11965;DHT22;6042;41.326;19.826;2022-11-20T13:40:11;13.20;99.90
11965;DHT22;6042;41.326;19.826;2022-11-20T13:42:44;13.20;99.90
11965;DHT22;6042;41.326;19.826;2022-11-20T13:45:24;13.20;99.90
11965;DHT22;6042;41.326;19.826;2022-11-20T13:47:54;13.10;99.90
11965;DHT22;6042;41.326;19.826;2022-11-20T13:50:39;13.10;99.90
11965;DHT22;6042;41.326;19.826;2022-11-20T13:53:23;13.00;99.90
11965;DHT22;6042;41.326;19.826;2022-11-20T13:55:59;13.00;99.90
11965;DHT22;6042;41.326;19.826;2022-11-20T13:58:40;13.00;99.90
11965;DHT22;6042;41.326;19.826;2022-11-20T14:01:19;13.00;99.90
11965;DHT22;6042;41.326;19.826;2022-11-20T14:03:48;13.10;99.90
11965;DHT22;6042;41.326;19.826;2022-11-20T14:06:38;13.10;99.90
11965;DHT22;6042;41.326;19.826;2022-11-20T14:09:11;13.20;99.90
11965;DHT22;6042;41.326;19.826;2022-11-20T14:11:46;13.30;99.90
11965;DHT22;6042;41.326;19.826;2022-11-20T14:14:17;13.30;99.90
11965;DHT22;6042;41.326;19.826;2022-11-20T14:16:50;13.30;99.90
11965;DHT22;6042;41.326;19.826;2022-11-20T14:19:28;13.30;99.90
11965;DHT22;6042;41.326;19.826;2022-11-20T14:22:14;13.40;99.90
11965;DHT22;6042;41.326;19.826;2022-11-20T14:24:44;13.50;99.90
11965;DHT22;6042;41.326;19.826;2022-11-20T14:27:15;13.50;99.90
11965;DHT22;6042;41.326;19.826;2022-11-20T14:29:46;13.40;99.90
11965;DHT22;6042;41.326;19.826;2022-11-20T14:32:18;13.40;99.90
11965;DHT22;6042;41.326;19.826;2022-11-20T14:34:50;13.40;99.90
11965;DHT22;6042;41.326;19.826;2022-11-20T14:37:21;13.40;99.90
11965;DHT22;6042;41.326;19.826;2022-11-20T14:39:53;13.40;99.90
11965;DHT22;6042;41.326;19.826;2022-11-20T14:42:23;13.50;99.90
11965;DHT22;6042;41.326;19.826;2022-11-20T14:44:54;13.40;99.90
11965;DHT22;6042;41.326;19.826;2022-11-20T14:47:26;13.50;99.90
11965;DHT22;6042;41.326;19.826;2022-11-20T14:49:59;13.50;99.90
11965;DHT22;6042;41.326;19.826;2022-11-20T14:52:35;13.40;99.90
11965;DHT22;6042;41.326;19.826;2022-11-20T14:55:04;13.40;99.90
11965;DHT22;6042;41.326;19.826;2022-11-20T14:57:35;13.40;99.90
11965;DHT22;6042;41.326;19.826;2022-11-20T15:00:07;13.40;99.90
11965;DHT22;6042;41.326;19.826;2022-11-20T15:02:41;13.40;99.90
11965;DHT22;6042;41.326;19.826;2022-11-20T15:05:10;13.40;99.90
11965;DHT22;6042;41.326;19.826;2022-11-20T15:07:42;13.50;99.90
11965;DHT22;6042;41.326;19.826;2022-11-20T15:10:19;13.50;99.90
11965;DHT22;6042;41.326;19.826;2022-11-20T15:12:50;13.50;99.90
11965;DHT22;6042;41.326;19.826;2022-11-20T15:15:24;13.50;99.90
11965;DHT22;6042;41.326;19.826;2022-11-20T15:17:55;13.50;99.90
11965;DHT22;6042;41.326;19.826;2022-11-20T15:20:26;13.40;99.90
11965;DHT22;6042;41.326;19.826;2022-11-20T15:22:55;13.40;99.90
11965;DHT22;6042;41.326;19.826;2022-11-20T15:25:24;13.40;99.90
11965;DHT22;6042;41.326;19.826;2022-11-20T15:27:56;13.30;99.90
11965;DHT22;6042;41.326;19.826;2022-11-20T15:30:25;13.30;99.90
11965;DHT22;6042;41.326;19.826;2022-11-20T15:32:58;13.30;99.90
11965;DHT22;6042;41.326;19.826;2022-11-20T15:35:29;13.30;99.90
11965;DHT22;6042;41.326;19.826;2022-11-20T15:37:58;13.40;99.90
11965;DHT22;6042;41.326;19.826;2022-11-20T15:40:26;13.40;99.90
11965;DHT22;6042;41.326;19.826;2022-11-20T15:42:55;13.30;99.90
11965;DHT22;6042;41.326;19.826;2022-11-20T15:45:41;13.30;99.90
11965;DHT22;6042;41.326;19.826;2022-11-20T15:48:14;13.30;99.90
11965;DHT22;6042;41.326;19.826;2022-11-20T15:50:50;13.30;99.90
11965;DHT22;6042;41.326;19.826;2022-11-20T15:53:20;13.30;99.90
11965;DHT22;6042;41.326;19.826;2022-11-20T15:55:49;13.30;99.90
11965;DHT22;6042;41.326;19.826;2022-11-20T15:58:17;13.20;99.90
11965;DHT22;6042;41.326;19.826;2022-11-20T16:00:46;13.30;99.90
11965;DHT22;6042;41.326;19.826;2022-11-20T16:03:16;13.20;99.90
11965;DHT22;6042;41.326;19.826;2022-11-20T16:05:45;13.30;99.90
11965;DHT22;6042;41.326;19.826;2022-11-20T16:08:14;13.20;99.90
11965;DHT22;6042;41.326;19.826;2022-11-20T16:10:42;13.10;99.90
11965;DHT22;6042;41.326;19.826;2022-11-20T16:13:12;13.00;99.90
11965;DHT22;6042;41.326;19.826;2022-11-20T16:16:02;13.00;99.90